sensor_id;sensor_type;location;lat;lon;timestamp;pressure;altitude;pressure_sealevel;temperature;humidity
78888;BME280;68276;49.326;8.690;2023-04-24T00:01:26;99218.66;;;11.81;100.00
78888;BME280;68276;49.326;8.690;2023-04-24T00:03:52;99218.69;;;11.74;100.00
78888;BME280;68276;49.326;8.690;2023-04-24T00:06:17;99210.47;;;11.69;100.00
78888;BME280;68276;49.326;8.690;2023-04-24T00:08:42;99218.75;;;11.68;100.00
78888;BME280;68276;49.326;8.690;2023-04-24T00:11:08;99223.75;;;11.64;100.00
78888;BME280;68276;49.326;8.690;2023-04-24T00:13:35;99224.16;;;11.68;100.00
78888;BME280;68276;49.326;8.690;2023-04-24T00:16:00;99227.06;;;11.66;100.00
78888;BME280;68276;49.326;8.690;2023-04-24T00:18:26;99214.81;;;11.70;100.00
78888;BME280;68276;49.326;8.690;2023-04-24T00:20:51;99215.44;;;11.72;100.00
78888;BME280;68276;49.326;8.690;2023-04-24T00:23:17;99208.78;;;11.75;100.00
78888;BME280;68276;49.326;8.690;2023-04-24T00:25:42;99211.69;;;11.73;100.00
78888;BME280;68276;49.326;8.690;2023-04-24T00:28:09;99213.69;;;11.78;100.00
78888;BME280;68276;49.326;8.690;2023-04-24T00:30:34;99208.09;;;11.79;100.00
78888;BME280;68276;49.326;8.690;2023-04-24T00:33:00;99203.94;;;11.83;100.00
78888;BME280;68276;49.326;8.690;2023-04-24T00:35:25;99205.41;;;11.79;100.00
78888;BME280;68276;49.326;8.690;2023-04-24T00:37:50;99208.53;;;11.76;100.00
78888;BME280;68276;49.326;8.690;2023-04-24T00:40:17;99214.16;;;11.75;100.00
78888;BME280;68276;49.326;8.690;2023-04-24T00:42:43;99214.97;;;11.75;100.00
78888;BME280;68276;49.326;8.690;2023-04-24T00:45:09;99214.97;;;11.75;100.00
78888;BME280;68276;49.326;8.690;2023-04-24T00:47:34;99217.28;;;11.72;100.00
78888;BME280;68276;49.326;8.690;2023-04-24T00:50:04;99221.22;;;11.69;100.00
78888;BME280;68276;49.326;8.690;2023-04-24T00:52:30;99214.97;;;11.75;100.00
78888;BME280;68276;49.326;8.690;2023-04-24T00:54:57;99213.69;;;11.78;100.00
78888;BME280;68276;49.326;8.690;2023-04-24T00:57:24;99218.88;;;11.79;100.00
78888;BME280;68276;49.326;8.690;2023-04-24T00:59:50;99217.06;;;11.73;100.00
78888;BME280;68276;49.326;8.690;2023-04-24T01:02:15;99214.00;;;11.70;100.00
78888;BME280;68276;49.326;8.690;2023-04-24T01:04:41;99215.84;;;11.69;100.00
78888;BME280;68276;49.326;8.690;2023-04-24T01:07:07;99206.38;;;11.67;100.00
78888;BME280;68276;49.326;8.690;2023-04-24T01:09:36;99205.91;;;11.70;100.00
78888;BME280;68276;49.326;8.690;2023-04-24T01:12:03;99201.97;;;11.72;100.00
78888;BME280;68276;49.326;8.690;2023-04-24T01:14:29;99194.72;;;11.73;100.00
78888;BME280;68276;49.326;8.690;2023-04-24T01:16:55;99187.47;;;11.73;100.00
78888;BME280;68276;49.326;8.690;2023-04-24T01:19:22;99186.41;;;11.74;100.00
78888;BME280;68276;49.326;8.690;2023-04-24T01:21:51;99200.16;;;11.66;100.00
78888;BME280;68276;49.326;8.690;2023-04-24T01:24:19;99198.53;;;11.65;100.00
78888;BME280;68276;49.326;8.690;2023-04-24T01:26:44;99200.56;;;11.63;100.00
78888;BME280;68276;49.326;8.690;2023-04-24T01:29:10;99200.19;;;11.60;100.00
78888;BME280;68276;49.326;8.690;2023-04-24T01:31:36;99204.56;;;11.54;100.00
78888;BME280;68276;49.326;8.690;2023-04-24T01:34:02;99202.94;;;11.53;100.00
78888;BME280;68276;49.326;8.690;2023-04-24T01:36:28;99200.63;;;11.57;100.00
78888;BME280;68276;49.326;8.690;2023-04-24T01:38:54;99198.13;;;11.55;100.00
78888;BME280;68276;49.326;8.690;2023-04-24T01:41:20;99191.34;;;11.52;100.00
78888;BME280;68276;49.326;8.690;2023-04-24T01:43:46;99201.44;;;11.57;100.00
78888;BME280;68276;49.326;8.690;2023-04-24T01:46:11;99196.28;;;11.55;100.00
78888;BME280;68276;49.326;8.690;2023-04-24T01:48:36;99197.72;;;11.58;100.00
78888;BME280;68276;49.326;8.690;2023-04-24T01:51:02;99189.81;;;11.63;100.00
78888;BME280;68276;49.326;8.690;2023-04-24T01:53:27;99193.13;;;11.65;100.00
78888;BME280;68276;49.326;8.690;2023-04-24T01:55:53;99180.72;;;11.64;100.00
78888;BME280;68276;49.326;8.690;2023-04-24T01:58:18;99183.19;;;11.66;100.00
78888;BME280;68276;49.326;8.690;2023-04-24T02:00:43;99183.00;;;11.61;100.00
78888;BME280;68276;49.326;8.690;2023-04-24T02:03:09;99182.59;;;11.57;100.00
78888;BME280;68276;49.326;8.690;2023-04-24T02:05:34;99176.03;;;11.53;100.00
78888;BME280;68276;49.326;8.690;2023-04-24T02:08:00;99174.22;;;11.47;100.00
78888;BME280;68276;49.326;8.690;2023-04-24T02:10:25;99176.28;;;11.45;100.00
78888;BME280;68276;49.326;8.690;2023-04-24T02:12:50;99180.03;;;11.44;100.00
78888;BME280;68276;49.326;8.690;2023-04-24T02:15:16;99176.13;;;11.40;100.00
78888;BME280;68276;49.326;8.690;2023-04-24T02:17:43;99181.72;;;11.38;100.00
78888;BME280;68276;49.326;8.690;2023-04-24T02:20:08;99183.56;;;11.38;100.00
78888;BME280;68276;49.326;8.690;2023-04-24T02:22:33;99181.34;;;11.35;100.00
78888;BME280;68276;49.326;8.690;2023-04-24T02:24:59;99178.25;;;11.31;100.00
78888;BME280;68276;49.326;8.690;2023-04-24T02:27:24;99173.97;;;11.24;100.00
78888;BME280;68276;49.326;8.690;2023-04-24T02:29:50;99180.22;;;11.18;100.00
78888;BME280;68276;49.326;8.690;2023-04-24T02:32:15;99169.31;;;11.13;100.00
78888;BME280;68276;49.326;8.690;2023-04-24T02:34:41;99169.75;;;11.10;100.00
78888;BME280;68276;49.326;8.690;2023-04-24T02:37:06;99172.22;;;11.11;100.00
78888;BME280;68276;49.326;8.690;2023-04-24T02:39:32;99171.38;;;11.11;100.00
78888;BME280;68276;49.326;8.690;2023-04-24T02:41:57;99170.53;;;11.10;100.00
78888;BME280;68276;49.326;8.690;2023-04-24T02:44:23;99188.56;;;11.10;100.00
78888;BME280;68276;49.326;8.690;2023-04-24T02:46:48;99181.06;;;11.12;100.00
78888;BME280;68276;49.326;8.690;2023-04-24T02:49:13;99177.81;;;11.10;100.00
78888;BME280;68276;49.326;8.690;2023-04-24T02:51:39;99172.44;;;11.10;100.00
78888;BME280;68276;49.326;8.690;2023-04-24T02:54:07;99175.69;;;11.12;100.00
78888;BME280;68276;49.326;8.690;2023-04-24T02:56:34;99179.00;;;11.14;100.00
78888;BME280;68276;49.326;8.690;2023-04-24T02:58:59;99183.94;;;11.17;100.00
78888;BME280;68276;49.326;8.690;2023-04-24T03:01:24;99188.44;;;11.23;100.00
78888;BME280;68276;49.326;8.690;2023-04-24T03:03:50;99189.69;;;11.27;100.00
78888;BME280;68276;49.326;8.690;2023-04-24T03:06:15;99189.69;;;11.27;100.00
78888;BME280;68276;49.326;8.690;2023-04-24T03:08:40;99196.03;;;11.32;100.00
78888;BME280;68276;49.326;8.690;2023-04-24T03:11:06;99198.09;;;11.37;100.00
78888;BME280;68276;49.326;8.690;2023-04-24T03:13:31;99203.13;;;11.27;100.00
78888;BME280;68276;49.326;8.690;2023-04-24T03:15:56;99203.69;;;11.29;100.00
78888;BME280;68276;49.326;8.690;2023-04-24T03:18:22;99217.75;;;11.31;100.00
78888;BME280;68276;49.326;8.690;2023-04-24T03:20:47;99231.91;;;11.20;100.00
78888;BME280;68276;49.326;8.690;2023-04-24T03:23:13;99236.78;;;10.98;100.00
78888;BME280;68276;49.326;8.690;2023-04-24T03:25:38;99239.63;;;10.59;100.00
78888;BME280;68276;49.326;8.690;2023-04-24T03:28:04;99255.56;;;10.48;100.00
78888;BME280;68276;49.326;8.690;2023-04-24T03:30:29;99254.16;;;10.38;100.00
78888;BME280;68276;49.326;8.690;2023-04-24T03:32:55;99255.81;;;10.33;100.00
78888;BME280;68276;49.326;8.690;2023-04-24T03:35:20;99250.47;;;10.26;100.00
78888;BME280;68276;49.326;8.690;2023-04-24T03:37:47;99243.63;;;10.24;100.00
78888;BME280;68276;49.326;8.690;2023-04-24T03:40:12;99248.41;;;10.15;100.00
78888;BME280;68276;49.326;8.690;2023-04-24T03:42:37;99237.88;;;10.20;100.00
78888;BME280;68276;49.326;8.690;2023-04-24T03:45:03;99235.59;;;10.24;100.00
78888;BME280;68276;49.326;8.690;2023-04-24T03:47:29;99239.72;;;10.26;100.00
78888;BME280;68276;49.326;8.690;2023-04-24T03:49:54;99238.88;;;10.26;100.00
78888;BME280;68276;49.326;8.690;2023-04-24T03:52:20;99247.16;;;10.24;100.00
78888;BME280;68276;49.326;8.690;2023-04-24T03:54:46;99242.22;;;10.21;100.00
78888;BME280;68276;49.326;8.690;2023-04-24T03:57:11;99241.38;;;10.21;100.00
78888;BME280;68276;49.326;8.690;2023-04-24T03:59:36;99246.34;;;10.17;100.00
78888;BME280;68276;49.326;8.690;2023-04-24T04:02:02;99264.09;;;10.18;100.00
78888;BME280;68276;49.326;8.690;2023-04-24T04:04:27;99277.31;;;10.13;100.00
78888;BME280;68276;49.326;8.690;2023-04-24T04:06:53;99285.97;;;10.02;100.00
78888;BME280;68276;49.326;8.690;2023-04-24T04:09:18;99292.53;;;10.06;100.00
78888;BME280;68276;49.326;8.690;2023-04-24T04:11:43;99289.25;;;10.04;100.00
78888;BME280;68276;49.326;8.690;2023-04-24T04:14:09;99297.31;;;9.98;100.00
78888;BME280;68276;49.326;8.690;2023-04-24T04:16:34;99295.03;;;9.88;100.00
78888;BME280;68276;49.326;8.690;2023-04-24T04:19:01;99293.81;;;9.71;100.00
78888;BME280;68276;49.326;8.690;2023-04-24T04:21:28;99296.06;;;9.74;100.00
78888;BME280;68276;49.326;8.690;2023-04-24T04:23:53;99290.06;;;9.72;100.00
78888;BME280;68276;49.326;8.690;2023-04-24T04:26:18;99297.91;;;9.67;100.00
78888;BME280;68276;49.326;8.690;2023-04-24T04:28:46;99303.91;;;9.69;100.00
78888;BME280;68276;49.326;8.690;2023-04-24T04:31:12;99304.09;;;9.68;100.00
78888;BME280;68276;49.326;8.690;2023-04-24T04:33:38;99305.31;;;9.65;100.00
78888;BME280;68276;49.326;8.690;2023-04-24T04:36:04;99323.06;;;9.66;100.00
78888;BME280;68276;49.326;8.690;2023-04-24T04:38:30;99322.03;;;9.61;100.00
78888;BME280;68276;49.326;8.690;2023-04-24T04:40:55;99328.19;;;9.48;100.00
78888;BME280;68276;49.326;8.690;2023-04-24T04:43:22;99329.19;;;9.34;100.00
78888;BME280;68276;49.326;8.690;2023-04-24T04:45:48;99332.25;;;9.24;100.00
78888;BME280;68276;49.326;8.690;2023-04-24T04:48:13;99345.19;;;9.14;100.00
78888;BME280;68276;49.326;8.690;2023-04-24T04:50:39;99345.84;;;9.23;100.00
78888;BME280;68276;49.326;8.690;2023-04-24T04:53:04;99356.50;;;9.10;100.00
78888;BME280;68276;49.326;8.690;2023-04-24T04:55:30;99346.00;;;9.08;100.00
78888;BME280;68276;49.326;8.690;2023-04-24T04:57:57;99346.84;;;9.15;100.00
78888;BME280;68276;49.326;8.690;2023-04-24T05:00:22;99347.66;;;9.16;100.00
78888;BME280;68276;49.326;8.690;2023-04-24T05:02:50;99356.94;;;9.13;100.00
78888;BME280;68276;49.326;8.690;2023-04-24T05:05:16;99356.97;;;9.20;100.00
78888;BME280;68276;49.326;8.690;2023-04-24T05:07:43;99367.47;;;9.21;100.00
78888;BME280;68276;49.326;8.690;2023-04-24T05:10:08;99358.63;;;9.21;100.00
78888;BME280;68276;49.326;8.690;2023-04-24T05:12:34;99359.22;;;9.23;100.00
78888;BME280;68276;49.326;8.690;2023-04-24T05:15:00;99370.78;;;9.23;100.00
78888;BME280;68276;49.326;8.690;2023-04-24T05:17:25;99371.84;;;9.29;100.00
78888;BME280;68276;49.326;8.690;2023-04-24T05:19:51;99367.56;;;9.41;100.00
78888;BME280;68276;49.326;8.690;2023-04-24T05:22:16;99372.56;;;9.57;100.00
78888;BME280;68276;49.326;8.690;2023-04-24T05:24:43;99379.56;;;9.65;100.00
78888;BME280;68276;49.326;8.690;2023-04-24T05:27:09;99384.59;;;9.87;100.00
78888;BME280;68276;49.326;8.690;2023-04-24T05:29:34;99384.59;;;9.87;100.00
78888;BME280;68276;49.326;8.690;2023-04-24T05:32:00;99386.88;;;9.97;100.00
78888;BME280;68276;49.326;8.690;2023-04-24T05:34:26;99378.41;;;9.87;100.00
78888;BME280;68276;49.326;8.690;2023-04-24T05:36:51;99380.88;;;9.88;100.00
78888;BME280;68276;49.326;8.690;2023-04-24T05:39:17;99390.16;;;9.92;100.00
78888;BME280;68276;49.326;8.690;2023-04-24T05:41:43;99391.63;;;10.01;100.00
78888;BME280;68276;49.326;8.690;2023-04-24T05:44:08;99395.34;;;10.07;100.00
78888;BME280;68276;49.326;8.690;2023-04-24T05:46:34;99398.25;;;10.05;100.00
78888;BME280;68276;49.326;8.690;2023-04-24T05:48:59;99395.78;;;10.04;100.00
78888;BME280;68276;49.326;8.690;2023-04-24T05:51:25;99398.06;;;10.13;100.00
78888;BME280;68276;49.326;8.690;2023-04-24T05:53:51;99393.53;;;10.20;100.00
78888;BME280;68276;49.326;8.690;2023-04-24T05:56:17;99395.63;;;10.25;100.00
78888;BME280;68276;49.326;8.690;2023-04-24T05:58:43;99396.44;;;10.19;100.00
78888;BME280;68276;49.326;8.690;2023-04-24T06:01:09;99401.59;;;10.27;100.00
78888;BME280;68276;49.326;8.690;2023-04-24T06:03:34;99413.16;;;10.34;100.00
78888;BME280;68276;49.326;8.690;2023-04-24T06:06:00;99408.22;;;10.44;100.00
78888;BME280;68276;49.326;8.690;2023-04-24T06:08:25;99408.19;;;10.57;100.00
78888;BME280;68276;49.326;8.690;2023-04-24T06:10:51;99425.53;;;10.74;100.00
78888;BME280;68276;49.326;8.690;2023-04-24T06:13:16;99416.06;;;10.72;100.00
78888;BME280;68276;49.326;8.690;2023-04-24T06:15:43;99424.53;;;10.49;100.00
78888;BME280;68276;49.326;8.690;2023-04-24T06:18:09;99415.66;;;10.42;100.00
78888;BME280;68276;49.326;8.690;2023-04-24T06:20:35;99416.06;;;10.52;100.00
78888;BME280;68276;49.326;8.690;2023-04-24T06:23:01;99418.53;;;10.54;100.00
78888;BME280;68276;49.326;8.690;2023-04-24T06:25:28;99423.50;;;10.50;100.00
78888;BME280;68276;49.326;8.690;2023-04-24T06:27:54;99421.84;;;10.56;100.00
78888;BME280;68276;49.326;8.690;2023-04-24T06:30:20;99419.34;;;10.61;100.00
78888;BME280;68276;49.326;8.690;2023-04-24T06:32:45;99432.97;;;10.72;100.00
78888;BME280;68276;49.326;8.690;2023-04-24T06:35:11;99430.94;;;10.61;100.00
78888;BME280;68276;49.326;8.690;2023-04-24T06:37:38;99430.09;;;10.48;100.00
78888;BME280;68276;49.326;8.690;2023-04-24T06:40:04;99443.31;;;10.43;100.00
78888;BME280;68276;49.326;8.690;2023-04-24T06:42:30;99444.56;;;10.33;100.00
78888;BME280;68276;49.326;8.690;2023-04-24T06:44:56;99440.63;;;10.43;100.00
78888;BME280;68276;49.326;8.690;2023-04-24T06:47:21;99439.59;;;10.50;100.00
78888;BME280;68276;49.326;8.690;2023-04-24T06:49:46;99440.81;;;10.48;100.00
78888;BME280;68276;49.326;8.690;2023-04-24T06:52:12;99435.25;;;10.56;100.00
78888;BME280;68276;49.326;8.690;2023-04-24T06:54:37;99447.44;;;10.58;100.00
78888;BME280;68276;49.326;8.690;2023-04-24T06:57:02;99449.31;;;10.64;100.00
78888;BME280;68276;49.326;8.690;2023-04-24T06:59:28;99437.53;;;10.72;100.00
78888;BME280;68276;49.326;8.690;2023-04-24T07:01:55;99447.03;;;10.68;100.00
78888;BME280;68276;49.326;8.690;2023-04-24T07:04:20;99440.63;;;10.82;100.00
78888;BME280;68276;49.326;8.690;2023-04-24T07:06:46;99444.13;;;10.89;100.00
78888;BME280;68276;49.326;8.690;2023-04-24T07:09:12;99440.38;;;10.96;100.00
78888;BME280;68276;49.326;8.690;2023-04-24T07:11:38;99436.69;;;10.97;100.00
78888;BME280;68276;49.326;8.690;2023-04-24T07:14:06;99436.69;;;10.91;100.00
78888;BME280;68276;49.326;8.690;2023-04-24T07:16:31;99438.34;;;10.79;100.00
78888;BME280;68276;49.326;8.690;2023-04-24T07:18:56;99453.44;;;10.67;100.00
78888;BME280;68276;49.326;8.690;2023-04-24T07:21:22;99464.38;;;10.59;100.00
78888;BME280;68276;49.326;8.690;2023-04-24T07:23:47;99471.38;;;10.27;100.00
78888;BME280;68276;49.326;8.690;2023-04-24T07:26:13;99486.34;;;9.95;100.00
78888;BME280;68276;49.326;8.690;2023-04-24T07:28:40;99491.19;;;9.59;100.00
78888;BME280;68276;49.326;8.690;2023-04-24T07:31:05;99494.59;;;9.47;100.00
78888;BME280;68276;49.326;8.690;2023-04-24T07:33:31;99497.31;;;9.53;100.00
78888;BME280;68276;49.326;8.690;2023-04-24T07:35:56;99495.94;;;9.64;100.00
78888;BME280;68276;49.326;8.690;2023-04-24T07:38:22;99499.25;;;9.66;100.00
78888;BME280;68276;49.326;8.690;2023-04-24T07:40:48;99500.22;;;9.58;100.00
78888;BME280;68276;49.326;8.690;2023-04-24T07:43:14;99496.91;;;9.56;100.00
78888;BME280;68276;49.326;8.690;2023-04-24T07:45:41;99506.22;;;9.60;100.00
78888;BME280;68276;49.326;8.690;2023-04-24T07:48:06;99518.44;;;9.69;100.00
78888;BME280;68276;49.326;8.690;2023-04-24T07:50:34;99509.75;;;9.67;100.00
78888;BME280;68276;49.326;8.690;2023-04-24T07:52:59;99526.88;;;9.66;100.00
78888;BME280;68276;49.326;8.690;2023-04-24T07:55:25;99520.84;;;9.58;100.00
78888;BME280;68276;49.326;8.690;2023-04-24T07:57:50;99523.94;;;9.55;100.00
78888;BME280;68276;49.326;8.690;2023-04-24T08:00:16;99513.78;;;9.44;100.00
78888;BME280;68276;49.326;8.690;2023-04-24T08:02:42;99535.91;;;9.59;100.00
78888;BME280;68276;49.326;8.690;2023-04-24T08:05:07;99538.06;;;9.76;100.00
78888;BME280;68276;49.326;8.690;2023-04-24T08:07:33;99532.00;;;10.02;100.00
78888;BME280;68276;49.326;8.690;2023-04-24T08:10:00;99540.16;;;10.21;100.00
78888;BME280;68276;49.326;8.690;2023-04-24T08:12:28;99542.66;;;10.36;100.00
78888;BME280;68276;49.326;8.690;2023-04-24T08:14:53;99534.22;;;10.52;100.00
78888;BME280;68276;49.326;8.690;2023-04-24T08:17:19;99533.78;;;10.62;95.98
78888;BME280;68276;49.326;8.690;2023-04-24T08:19:44;99541.88;;;10.88;97.49
78888;BME280;68276;49.326;8.690;2023-04-24T08:22:14;99535.88;;;11.31;96.68
78888;BME280;68276;49.326;8.690;2023-04-24T08:24:39;99528.34;;;11.73;94.95
78888;BME280;68276;49.326;8.690;2023-04-24T08:27:05;99540.59;;;11.49;92.28
78888;BME280;68276;49.326;8.690;2023-04-24T08:29:31;99541.69;;;11.22;92.65
78888;BME280;68276;49.326;8.690;2023-04-24T08:31:57;99540.56;;;11.55;91.18
78888;BME280;68276;49.326;8.690;2023-04-24T08:34:22;99539.09;;;11.73;88.32
78888;BME280;68276;49.326;8.690;2023-04-24T08:36:48;99547.81;;;11.68;89.60
78888;BME280;68276;49.326;8.690;2023-04-24T08:39:14;99551.34;;;11.49;89.53
78888;BME280;68276;49.326;8.690;2023-04-24T08:41:41;99561.72;;;11.19;90.70
78888;BME280;68276;49.326;8.690;2023-04-24T08:44:09;99569.19;;;11.11;86.79
78888;BME280;68276;49.326;8.690;2023-04-24T08:46:37;99568.56;;;11.09;81.83
78888;BME280;68276;49.326;8.690;2023-04-24T08:49:03;99570.00;;;10.98;79.64
78888;BME280;68276;49.326;8.690;2023-04-24T08:51:29;99584.06;;;11.13;80.01
78888;BME280;68276;49.326;8.690;2023-04-24T08:53:57;99573.94;;;10.96;80.73
78888;BME280;68276;49.326;8.690;2023-04-24T08:56:22;99575.38;;;11.05;81.86
78888;BME280;68276;49.326;8.690;2023-04-24T08:58:50;99579.72;;;10.93;82.00
78888;BME280;68276;49.326;8.690;2023-04-24T09:01:16;99553.88;;;10.98;83.12
78888;BME280;68276;49.326;8.690;2023-04-24T09:03:43;99564.44;;;11.13;82.89
78888;BME280;68276;49.326;8.690;2023-04-24T09:06:09;99576.41;;;11.17;82.13
78888;BME280;68276;49.326;8.690;2023-04-24T09:08:35;99585.31;;;11.30;83.15
78888;BME280;68276;49.326;8.690;2023-04-24T09:11:01;99585.25;;;11.76;77.69
78888;BME280;68276;49.326;8.690;2023-04-24T09:13:30;99605.06;;;12.01;76.94
78888;BME280;68276;49.326;8.690;2023-04-24T09:15:56;99603.66;;;11.86;74.34
78888;BME280;68276;49.326;8.690;2023-04-24T09:18:22;99601.00;;;11.73;73.98
78888;BME280;68276;49.326;8.690;2023-04-24T09:23:26;99602.88;;;11.66;70.32
78888;BME280;68276;49.326;8.690;2023-04-24T09:25:54;99605.13;;;11.82;71.56
78888;BME280;68276;49.326;8.690;2023-04-24T09:28:25;99601.97;;;11.98;72.43
78888;BME280;68276;49.326;8.690;2023-04-24T09:31:05;99589.56;;;11.90;69.92
78888;BME280;68276;49.326;8.690;2023-04-24T09:33:31;99591.25;;;11.78;71.58
78888;BME280;68276;49.326;8.690;2023-04-24T09:35:56;99601.19;;;11.71;71.70
78888;BME280;68276;49.326;8.690;2023-04-24T09:38:32;99606.72;;;12.02;71.36
78888;BME280;68276;49.326;8.690;2023-04-24T09:41:05;99618.59;;;11.75;72.63
78888;BME280;68276;49.326;8.690;2023-04-24T09:43:31;99636.41;;;11.70;72.49
78888;BME280;68276;49.326;8.690;2023-04-24T09:45:58;99626.84;;;11.87;73.21
78888;BME280;68276;49.326;8.690;2023-04-24T09:48:35;99630.19;;;11.76;73.02
78888;BME280;68276;49.326;8.690;2023-04-24T09:51:02;99625.63;;;11.76;74.41
78888;BME280;68276;49.326;8.690;2023-04-24T09:53:29;99617.09;;;11.92;72.24
78888;BME280;68276;49.326;8.690;2023-04-24T09:55:55;99623.50;;;11.98;71.06
78888;BME280;68276;49.326;8.690;2023-04-24T09:58:26;99626.78;;;12.06;73.25
78888;BME280;68276;49.326;8.690;2023-04-24T10:00:54;99636.75;;;11.99;74.33
78888;BME280;68276;49.326;8.690;2023-04-24T10:03:21;99627.63;;;12.07;72.79
78888;BME280;68276;49.326;8.690;2023-04-24T10:05:46;99633.41;;;12.04;74.25
78888;BME280;68276;49.326;8.690;2023-04-24T10:08:13;99635.06;;;12.11;74.48
78888;BME280;68276;49.326;8.690;2023-04-24T10:10:40;99632.22;;;11.87;71.86
78888;BME280;68276;49.326;8.690;2023-04-24T10:13:08;99641.56;;;11.58;71.78
78888;BME280;68276;49.326;8.690;2023-04-24T10:15:36;99635.56;;;11.49;72.17
78888;BME280;68276;49.326;8.690;2023-04-24T10:18:04;99636.59;;;11.68;71.75
78888;BME280;68276;49.326;8.690;2023-04-24T10:20:31;99645.06;;;11.58;71.14
78888;BME280;68276;49.326;8.690;2023-04-24T10:22:58;99644.88;;;11.47;73.51
78888;BME280;68276;49.326;8.690;2023-04-24T10:25:27;99645.31;;;11.37;74.95
78888;BME280;68276;49.326;8.690;2023-04-24T10:27:55;99641.97;;;11.22;74.36
78888;BME280;68276;49.326;8.690;2023-04-24T10:30:34;99658.31;;;11.21;76.01
78888;BME280;68276;49.326;8.690;2023-04-24T10:33:01;99652.53;;;11.37;76.11
78888;BME280;68276;49.326;8.690;2023-04-24T10:35:30;99657.06;;;11.43;76.09
78888;BME280;68276;49.326;8.690;2023-04-24T10:37:59;99679.00;;;11.40;75.47
78888;BME280;68276;49.326;8.690;2023-04-24T10:40:30;99675.28;;;11.28;77.16
78888;BME280;68276;49.326;8.690;2023-04-24T10:42:56;99671.53;;;11.22;79.05
78888;BME280;68276;49.326;8.690;2023-04-24T10:45:22;99688.31;;;11.44;79.58
78888;BME280;68276;49.326;8.690;2023-04-24T10:47:58;99690.72;;;11.00;83.82
78888;BME280;68276;49.326;8.690;2023-04-24T10:50:27;99697.56;;;11.02;86.37
78888;BME280;68276;49.326;8.690;2023-04-24T10:52:53;99683.97;;;11.36;85.97
78888;BME280;68276;49.326;8.690;2023-04-24T10:55:43;99686.19;;;11.13;87.23
78888;BME280;68276;49.326;8.690;2023-04-24T10:58:10;99698.00;;;11.06;88.31
78888;BME280;68276;49.326;8.690;2023-04-24T11:00:39;99690.19;;;11.30;88.36
78888;BME280;68276;49.326;8.690;2023-04-24T11:03:06;99684.78;;;11.50;86.59
78888;BME280;68276;49.326;8.690;2023-04-24T11:05:50;99680.28;;;11.70;84.27
78888;BME280;68276;49.326;8.690;2023-04-24T11:08:23;99669.66;;;11.95;82.18
78888;BME280;68276;49.326;8.690;2023-04-24T11:11:08;99679.00;;;11.92;81.22
78888;BME280;68276;49.326;8.690;2023-04-24T11:16:30;99688.22;;;12.86;77.26
78888;BME280;68276;49.326;8.690;2023-04-24T11:24:32;99691.34;;;12.19;76.42
78888;BME280;68276;49.326;8.690;2023-04-24T11:30:01;99692.06;;;11.69;77.99
78888;BME280;68276;49.326;8.690;2023-04-24T11:35:00;99693.91;;;11.88;75.11
78888;BME280;68276;49.326;8.690;2023-04-24T11:37:32;99690.75;;;12.17;72.57
78888;BME280;68276;49.326;8.690;2023-04-24T11:39:58;99700.69;;;12.23;72.31
78888;BME280;68276;49.326;8.690;2023-04-24T11:42:24;99699.06;;;12.03;74.21
78888;BME280;68276;49.326;8.690;2023-04-24T11:44:52;99698.19;;;12.22;72.19
78888;BME280;68276;49.326;8.690;2023-04-24T11:47:17;99708.13;;;12.21;72.08
78888;BME280;68276;49.326;8.690;2023-04-24T11:49:43;99708.75;;;12.23;70.82
78888;BME280;68276;49.326;8.690;2023-04-24T11:52:08;99712.44;;;12.42;71.29
78888;BME280;68276;49.326;8.690;2023-04-24T11:54:34;99705.63;;;12.26;69.49
78888;BME280;68276;49.326;8.690;2023-04-24T11:57:04;99691.00;;;11.96;72.02
78888;BME280;68276;49.326;8.690;2023-04-24T11:59:29;99704.81;;;12.19;70.82
78888;BME280;68276;49.326;8.690;2023-04-24T12:01:55;99708.56;;;12.18;70.11
78888;BME280;68276;49.326;8.690;2023-04-24T12:04:20;99715.44;;;11.88;68.62
78888;BME280;68276;49.326;8.690;2023-04-24T12:07:04;99708.31;;;12.26;67.75
78888;BME280;68276;49.326;8.690;2023-04-24T12:12:08;99717.38;;;12.51;67.46
78888;BME280;68276;49.326;8.690;2023-04-24T12:14:48;99715.78;;;12.24;68.07
78888;BME280;68276;49.326;8.690;2023-04-24T12:17:16;99714.56;;;12.20;67.54
78888;BME280;68276;49.326;8.690;2023-04-24T12:19:46;99715.59;;;12.26;69.44
78888;BME280;68276;49.326;8.690;2023-04-24T12:22:12;99711.41;;;12.36;68.17
78888;BME280;68276;49.326;8.690;2023-04-24T12:24:59;99713.19;;;12.62;66.54
78888;BME280;68276;49.326;8.690;2023-04-24T12:27:27;99721.06;;;12.63;65.74
78888;BME280;68276;49.326;8.690;2023-04-24T12:29:55;99726.91;;;12.54;62.90
78888;BME280;68276;49.326;8.690;2023-04-24T12:32:21;99729.88;;;12.26;64.37
78888;BME280;68276;49.326;8.690;2023-04-24T12:34:47;99719.28;;;12.44;62.68
78888;BME280;68276;49.326;8.690;2023-04-24T12:37:14;99720.22;;;12.63;61.71
78888;BME280;68276;49.326;8.690;2023-04-24T12:39:46;99722.72;;;12.64;60.38
78888;BME280;68276;49.326;8.690;2023-04-24T12:42:30;99702.72;;;12.85;61.04
78888;BME280;68276;49.326;8.690;2023-04-24T12:45:00;99710.34;;;12.95;62.29
78888;BME280;68276;49.326;8.690;2023-04-24T12:47:27;99703.47;;;12.99;61.80
78888;BME280;68276;49.326;8.690;2023-04-24T12:49:53;99705.50;;;13.41;60.98
78888;BME280;68276;49.326;8.690;2023-04-24T12:52:20;99710.78;;;13.85;58.14
78888;BME280;68276;49.326;8.690;2023-04-24T12:54:46;99702.91;;;13.59;57.03
78888;BME280;68276;49.326;8.690;2023-04-24T12:57:11;99694.06;;;13.95;57.46
78888;BME280;68276;49.326;8.690;2023-04-24T12:59:37;99697.06;;;14.47;55.56
78888;BME280;68276;49.326;8.690;2023-04-24T13:02:04;99697.97;;;14.17;54.73
78888;BME280;68276;49.326;8.690;2023-04-24T13:04:30;99710.44;;;13.75;55.90
78888;BME280;68276;49.326;8.690;2023-04-24T13:06:57;99696.97;;;13.93;56.06
78888;BME280;68276;49.326;8.690;2023-04-24T13:09:22;99702.16;;;14.55;53.62
78888;BME280;68276;49.326;8.690;2023-04-24T13:11:49;99700.34;;;14.49;53.75